Kelliher, Canada
Current Conditions -  °F | °C
As of 3:00 PM on Tuesday 21 Oct 2014 (Local Time) from CYQV Reporting Station
Clear Clear  
Wind Chill: 66°   Ceiling: Unl
Heat Index: 66°   Visibility: 9mi
Dew Point: 41°   Wind: 12mph
Humidity: 40%   Direction: 150°SSE
Pressure: 29.62"   Gusts: 22mph
Location:  51.27°N, 103.73°W
Report Text: CYQV 212100Z AUTO 15010G19KT 9SM CLR 19/05 A2962 RMK SLP040 DENSITY ALT 2800FT
Loading
Personal Weather Stations






























Interactive Weather Map
Tropical Storm Tracking
New forecast layout! Learn more

10-Day Weather Forecast

Advertisements
Track Severe Weather on mobile